createdAt,value
2022-11-25T00:01:29.408Z,77.56
2022-11-25T00:07:00.746Z,77.49
2022-11-25T00:12:31.846Z,77.52
2022-11-25T00:18:03.174Z,77.64
2022-11-25T00:23:34.748Z,77.64
2022-11-25T00:29:07.332Z,77.11
2022-11-25T00:34:40.215Z,77.10
2022-11-25T00:40:13.018Z,77.12
2022-11-25T00:45:44.048Z,77.06
2022-11-25T00:51:15.564Z,77.10
2022-11-25T00:56:48.776Z,76.99
2022-11-25T01:02:20.345Z,77.68
2022-11-25T01:07:51.896Z,77.36
2022-11-25T01:13:24.654Z,76.92
2022-11-25T01:18:56.171Z,77.02
2022-11-25T01:24:27.318Z,76.96
2022-11-25T01:29:58.114Z,77.05
2022-11-25T01:35:29.347Z,76.90
2022-11-25T01:41:01.497Z,77.08
2022-11-25T01:47:01.673Z,76.95
2022-11-25T01:52:39.953Z,77.34
2022-11-25T01:58:22.002Z,77.35
2022-11-25T02:03:55.224Z,76.93
2022-11-25T02:09:27.837Z,77.26
2022-11-25T02:15:00.420Z,77.48
2022-11-25T02:20:31.602Z,77.02
2022-11-25T02:26:04.970Z,76.91
2022-11-25T02:31:36.193Z,76.65
2022-11-25T02:37:07.385Z,76.85
2022-11-25T02:42:38.332Z,77.13
2022-11-25T02:48:10.214Z,77.09
2022-11-25T02:53:42.162Z,76.79
2022-11-25T02:59:14.523Z,77.24
2022-11-25T03:04:46.216Z,77.08
2022-11-25T03:10:17.524Z,76.91
2022-11-25T03:15:49.030Z,77.42
2022-11-25T03:21:20.037Z,77.12
2022-11-25T03:26:51.237Z,76.70
2022-11-25T03:32:22.801Z,77.44
2022-11-25T03:37:54.213Z,76.94
2022-11-25T03:43:25.429Z,77.02
2022-11-25T03:48:57.019Z,76.78
2022-11-25T03:54:28.478Z,77.30
2022-11-25T04:00:35.869Z,77.53
2022-11-25T04:06:08.165Z,77.42
2022-11-25T04:11:57.862Z,77.05
2022-11-25T04:17:33.277Z,77.33
2022-11-25T04:23:06.470Z,77.00
2022-11-25T04:28:40.467Z,77.00
2022-11-25T04:34:12.115Z,77.44
2022-11-25T04:39:44.348Z,77.00
2022-11-25T04:45:23.309Z,76.57
2022-11-25T04:50:57.033Z,76.96
2022-11-25T04:56:28.596Z,77.31
2022-11-25T05:02:00.742Z,76.56
2022-11-25T05:07:43.872Z,77.15
2022-11-25T05:13:16.260Z,76.69
2022-11-25T05:18:47.754Z,76.77
2022-11-25T05:24:19.294Z,76.86
2022-11-25T05:29:56.194Z,77.10
2022-11-25T05:35:29.362Z,76.94
2022-11-25T05:41:06.731Z,77.01
2022-11-25T05:46:38.273Z,76.35
2022-11-25T05:52:09.885Z,76.88
2022-11-25T05:57:50.743Z,76.39
2022-11-25T06:03:27.970Z,76.23
2022-11-25T06:09:00.189Z,75.94
2022-11-25T06:14:33.294Z,76.38
2022-11-25T06:20:07.029Z,76.59
2022-11-25T06:25:39.484Z,75.87
2022-11-25T06:31:14.059Z,76.74
2022-11-25T06:36:56.034Z,76.29
2022-11-25T06:42:27.424Z,76.37
2022-11-25T06:47:58.744Z,77.01
2022-11-25T06:53:30.774Z,76.69
2022-11-25T06:59:02.859Z,76.30
2022-11-25T07:04:36.339Z,76.94
2022-11-25T07:10:08.583Z,76.41
2022-11-25T07:15:39.704Z,76.46
2022-11-25T07:21:16.910Z,76.89
2022-11-25T07:26:48.152Z,76.24
2022-11-25T07:32:19.443Z,76.21
2022-11-25T07:37:50.648Z,76.92
2022-11-25T07:43:21.916Z,75.71
2022-11-25T07:48:57.985Z,75.85
2022-11-25T07:54:28.948Z,76.31
2022-11-25T08:00:00.216Z,76.21
2022-11-25T08:05:33.439Z,75.75
2022-11-25T08:11:28.333Z,76.53
2022-11-25T08:16:59.645Z,76.05
2022-11-25T08:22:30.821Z,76.21
2022-11-25T08:28:02.290Z,76.28
2022-11-25T08:33:33.529Z,76.54
2022-11-25T08:39:28.956Z,75.76
2022-11-25T08:44:58.455Z,76.07
2022-11-25T08:50:29.706Z,76.41
2022-11-25T08:56:00.748Z,76.52
2022-11-25T09:01:32.638Z,76.26
2022-11-25T09:07:05.477Z,76.56
2022-11-25T09:12:37.034Z,76.22
2022-11-25T09:18:10.677Z,76.24
2022-11-25T09:23:41.871Z,76.17
2022-11-25T09:29:14.258Z,76.78
2022-11-25T09:34:45.850Z,76.39
2022-11-25T09:40:32.187Z,75.94
2022-11-25T09:46:37.628Z,76.53
2022-11-25T09:52:37.623Z,76.14
2022-11-25T09:58:36.869Z,75.62
2022-11-25T10:04:20.072Z,75.45
2022-11-25T10:09:52.209Z,76.13
2022-11-25T10:15:30.946Z,75.65
2022-11-25T10:21:02.107Z,76.23
2022-11-25T10:26:37.643Z,75.88
2022-11-25T10:32:23.348Z,76.12
2022-11-25T10:37:55.643Z,76.32
2022-11-25T10:43:31.482Z,76.58
2022-11-25T10:49:15.309Z,77.34
2022-11-25T10:54:56.997Z,77.91
2022-11-25T11:00:37.195Z,77.74
2022-11-25T11:06:29.579Z,77.89
2022-11-25T11:12:20.869Z,78.25
2022-11-25T11:17:52.790Z,78.45
2022-11-25T11:23:25.225Z,78.53
2022-11-25T11:29:09.757Z,78.21
2022-11-25T11:35:00.701Z,78.68
2022-11-25T11:40:46.687Z,78.41
2022-11-25T11:46:31.227Z,78.56
2022-11-25T11:52:06.061Z,78.10
2022-11-25T11:57:48.977Z,78.87
2022-11-25T12:03:22.709Z,78.93
2022-11-25T12:09:01.896Z,78.99
2022-11-25T12:14:37.500Z,78.89
2022-11-25T12:20:16.349Z,78.90
2022-11-25T12:25:49.901Z,78.57
2022-11-25T12:31:33.225Z,78.84
2022-11-25T12:37:15.213Z,78.70
2022-11-25T12:42:46.918Z,78.63
2022-11-25T12:48:21.434Z,78.17
2022-11-25T12:54:21.369Z,77.96
2022-11-25T13:06:39.532Z,77.67
2022-11-25T13:12:17.377Z,77.84
2022-11-25T13:17:50.288Z,77.72
2022-11-25T13:23:26.862Z,77.53
2022-11-25T13:28:59.582Z,77.36
2022-11-25T13:34:37.444Z,77.20
2022-11-25T13:40:22.133Z,77.18
2022-11-25T13:45:53.308Z,77.34
2022-11-25T13:51:27.127Z,77.19
2022-11-25T13:57:12.538Z,77.16
2022-11-25T14:02:45.627Z,77.00
2022-11-25T14:08:53.836Z,77.07
2022-11-25T14:14:54.322Z,77.34
2022-11-25T14:20:59.904Z,77.21
2022-11-25T14:32:42.104Z,77.26
2022-11-25T14:38:33.083Z,77.47
2022-11-25T14:44:07.082Z,77.35
2022-11-25T14:49:51.690Z,77.36
2022-11-25T14:55:31.755Z,77.12
2022-11-25T15:01:08.232Z,77.30
2022-11-25T15:06:42.893Z,76.92
2022-11-25T15:12:17.627Z,77.21
2022-11-25T15:17:48.898Z,77.18
2022-11-25T15:23:25.652Z,77.02
2022-11-25T15:28:59.157Z,77.03
2022-11-25T15:34:31.084Z,77.04
2022-11-25T15:40:43.209Z,76.49
2022-11-25T15:46:15.059Z,76.91
2022-11-25T15:51:57.585Z,76.92
2022-11-25T15:57:35.719Z,76.98
2022-11-25T16:03:23.257Z,77.24
2022-11-25T16:09:02.425Z,77.57
2022-11-25T16:14:37.150Z,77.61
2022-11-25T16:20:20.172Z,77.39
2022-11-25T16:26:03.172Z,77.31
2022-11-25T16:31:34.580Z,77.54
2022-11-25T16:37:05.790Z,77.39
2022-11-25T16:42:38.125Z,77.41
2022-11-25T16:48:17.240Z,77.21
2022-11-25T16:53:48.886Z,77.20
2022-11-25T16:59:28.542Z,76.71
2022-11-25T17:05:14.412Z,77.02
2022-11-25T17:10:46.308Z,77.03
2022-11-25T17:16:20.426Z,76.95
2022-11-25T17:21:51.900Z,76.75
2022-11-25T17:27:32.251Z,76.73
2022-11-25T17:33:13.545Z,76.81
2022-11-25T17:38:44.774Z,76.58
2022-11-25T17:44:27.366Z,76.58
2022-11-25T17:49:58.703Z,76.68
2022-11-25T17:55:31.277Z,76.58
2022-11-25T18:01:02.231Z,76.51
2022-11-25T18:06:33.459Z,76.41
2022-11-25T18:12:10.799Z,76.60
2022-11-25T18:17:42.296Z,76.59
2022-11-25T18:23:13.591Z,76.41
2022-11-25T18:28:44.728Z,76.37
2022-11-25T18:34:17.116Z,76.46
2022-11-25T18:39:48.490Z,76.45
2022-11-25T18:45:23.304Z,76.18
2022-11-25T18:50:56.316Z,75.96
2022-11-25T18:56:27.656Z,76.03
2022-11-25T19:01:58.955Z,76.21
2022-11-25T19:07:30.933Z,76.09
2022-11-25T19:13:06.475Z,76.05
2022-11-25T19:18:37.765Z,76.09
2022-11-25T19:24:13.992Z,76.26
2022-11-25T19:29:45.457Z,76.21
2022-11-25T19:35:25.580Z,76.06
2022-11-25T19:40:57.678Z,76.46
2022-11-25T19:46:46.282Z,76.19
2022-11-25T19:52:24.118Z,76.03
2022-11-25T19:57:55.238Z,76.08
2022-11-25T20:03:29.382Z,75.90
2022-11-25T20:09:06.421Z,76.20
2022-11-25T20:14:39.368Z,76.46
2022-11-25T20:20:18.311Z,76.44
2022-11-25T20:25:49.647Z,76.13
2022-11-25T20:31:20.900Z,76.38
2022-11-25T20:36:51.991Z,76.46
2022-11-25T20:42:23.838Z,76.45
2022-11-25T20:47:55.450Z,76.24
2022-11-25T20:53:28.218Z,76.60
2022-11-25T20:58:59.705Z,76.45
2022-11-25T21:04:31.043Z,76.31
2022-11-25T21:10:02.310Z,76.90
2022-11-25T21:15:33.246Z,76.46
2022-11-25T21:21:05.316Z,76.91
2022-11-25T21:26:36.614Z,76.81
2022-11-25T21:32:28.097Z,76.65
2022-11-25T21:38:03.133Z,76.55
2022-11-25T21:43:34.873Z,76.63
2022-11-25T21:49:11.517Z,76.53
2022-11-25T21:54:43.248Z,76.80
2022-11-25T22:00:25.704Z,76.82
2022-11-25T22:05:56.923Z,76.92
2022-11-25T22:11:32.200Z,76.77
2022-11-25T22:17:14.937Z,77.11
2022-11-25T22:22:46.109Z,77.31
2022-11-25T22:28:19.234Z,76.78
2022-11-25T22:33:50.897Z,76.93
2022-11-25T22:39:26.745Z,76.92
2022-11-25T22:44:59.289Z,77.16
2022-11-25T22:50:32.985Z,77.18
2022-11-25T22:56:04.490Z,77.55
2022-11-25T23:01:35.532Z,77.33
2022-11-25T23:07:12.366Z,77.28
2022-11-25T23:12:43.846Z,77.30
2022-11-25T23:18:16.981Z,77.67
2022-11-25T23:23:47.976Z,77.29
2022-11-25T23:29:19.311Z,78.04
2022-11-25T23:34:50.971Z,77.64
2022-11-25T23:40:23.440Z,77.62
2022-11-25T23:45:57.335Z,77.52
2022-11-25T23:51:29.887Z,77.97
2022-11-25T23:57:02.247Z,78.11
